createdAt,value
2018-05-21T00:01:54.921Z,2.17
2018-05-21T00:04:23.193Z,2.33
2018-05-21T00:06:51.450Z,2.47
2018-05-21T00:09:19.886Z,2.63
2018-05-21T00:11:48.126Z,2.20
2018-05-21T00:14:17.099Z,2.53
2018-05-21T00:16:45.560Z,2.67
2018-05-21T00:19:13.905Z,2.33
2018-05-21T00:21:42.306Z,2.50
2018-05-21T00:24:10.668Z,2.67
2018-05-21T00:26:38.926Z,2.23
2018-05-21T00:29:07.409Z,2.23
2018-05-21T00:31:35.806Z,2.10
2018-05-21T00:34:04.127Z,2.20
2018-05-21T00:36:32.402Z,2.40
2018-05-21T00:39:00.666Z,2.43
2018-05-21T00:41:28.930Z,2.20
2018-05-21T00:43:57.206Z,2.60
2018-05-21T00:46:25.465Z,2.30
2018-05-21T00:48:53.782Z,2.50
2018-05-21T00:51:22.051Z,2.20
2018-05-21T00:53:50.325Z,2.50
2018-05-21T00:56:18.599Z,2.47
2018-05-21T00:58:47.516Z,2.43
2018-05-21T01:01:15.792Z,2.27
2018-05-21T01:03:44.067Z,2.40
2018-05-21T01:06:12.405Z,2.07
2018-05-21T01:08:40.685Z,2.40
2018-05-21T01:11:08.971Z,2.30
2018-05-21T01:13:37.218Z,2.20
2018-05-21T01:16:05.493Z,2.63
2018-05-21T01:18:33.769Z,2.00
2018-05-21T01:21:02.035Z,2.27
2018-05-21T01:23:30.307Z,2.20
2018-05-21T01:25:58.581Z,2.00
2018-05-21T01:28:26.978Z,2.20
2018-05-21T01:30:55.286Z,2.40
2018-05-21T01:33:24.340Z,2.07
2018-05-21T01:35:52.605Z,2.40
2018-05-21T01:38:21.110Z,2.20
2018-05-21T01:40:49.459Z,2.53
2018-05-21T01:43:17.655Z,2.53
2018-05-21T01:45:45.954Z,2.40
2018-05-21T01:48:14.622Z,2.20
2018-05-21T01:50:43.708Z,2.10
2018-05-21T01:53:12.001Z,2.50
2018-05-21T01:55:40.272Z,2.10
2018-05-21T01:58:08.537Z,2.20
2018-05-21T02:00:36.790Z,2.00
2018-05-21T02:03:05.452Z,2.33
2018-05-21T02:05:34.479Z,2.23
2018-05-21T02:08:02.902Z,2.10
2018-05-21T02:10:31.230Z,2.13
2018-05-21T02:12:59.493Z,1.97
2018-05-21T02:15:27.761Z,2.10
2018-05-21T02:17:56.051Z,2.10
2018-05-21T02:20:24.466Z,2.03
2018-05-21T02:22:52.765Z,2.20
2018-05-21T02:25:21.181Z,2.33
2018-05-21T02:27:49.413Z,2.27
2018-05-21T02:30:17.712Z,2.00
2018-05-21T02:32:46.028Z,2.13
2018-05-21T02:35:14.303Z,2.53
2018-05-21T02:37:42.709Z,2.30
2018-05-21T02:40:11.190Z,2.20
2018-05-21T02:42:39.602Z,2.27
2018-05-21T02:45:07.871Z,2.07
2018-05-21T02:47:36.148Z,2.30
2018-05-21T02:50:04.419Z,2.17
2018-05-21T02:52:32.689Z,2.10
2018-05-21T02:55:01.154Z,2.10
2018-05-21T02:57:29.493Z,2.03
2018-05-21T02:59:57.758Z,2.00
2018-05-21T03:02:26.245Z,2.23
2018-05-21T03:04:55.277Z,1.93
2018-05-21T03:07:23.956Z,2.10
2018-05-21T03:09:52.220Z,1.80
2018-05-21T03:12:20.485Z,1.90
2018-05-21T03:14:48.747Z,2.10
2018-05-21T03:17:17.198Z,1.90
2018-05-21T03:19:45.495Z,2.03
2018-05-21T03:22:13.942Z,1.93
2018-05-21T03:24:42.306Z,1.80
2018-05-21T03:27:11.355Z,1.90
2018-05-21T03:29:39.693Z,2.10
2018-05-21T03:32:08.103Z,2.20
2018-05-21T03:34:36.392Z,2.00
2018-05-21T03:37:04.855Z,2.00
2018-05-21T03:39:33.223Z,1.90
2018-05-21T03:42:01.603Z,1.80
2018-05-21T03:44:29.976Z,1.90
2018-05-21T03:46:58.271Z,1.93
2018-05-21T03:49:26.740Z,2.00
2018-05-21T03:51:55.079Z,2.10
2018-05-21T03:54:23.496Z,2.20
2018-05-21T03:56:51.879Z,1.90
2018-05-21T03:59:31.976Z,1.93
2018-05-21T04:02:12.279Z,1.70
2018-05-21T04:04:40.549Z,2.10
2018-05-21T04:07:09.664Z,1.97
2018-05-21T04:09:37.976Z,1.90
2018-05-21T04:12:07.023Z,1.90
2018-05-21T04:14:35.331Z,1.97
2018-05-21T04:17:03.616Z,2.00
2018-05-21T04:19:31.875Z,2.00
2018-05-21T04:22:00.143Z,1.70
2018-05-21T04:24:28.539Z,2.10
2018-05-21T04:26:56.995Z,1.80
2018-05-21T04:29:25.296Z,2.10
2018-05-21T04:31:53.733Z,2.00
2018-05-21T04:34:22.112Z,1.93
2018-05-21T04:36:50.441Z,1.90
2018-05-21T04:39:18.850Z,1.80
2018-05-21T04:41:47.262Z,1.90
2018-05-21T04:44:15.656Z,2.00
2018-05-21T04:46:44.023Z,2.00
2018-05-21T04:49:12.387Z,1.90
2018-05-21T04:51:40.649Z,1.83
2018-05-21T04:54:08.915Z,1.97
2018-05-21T04:56:37.230Z,1.83
2018-05-21T04:59:05.618Z,1.90
2018-05-21T05:01:33.919Z,1.73
2018-05-21T05:04:02.379Z,2.17
2018-05-21T05:06:31.047Z,1.80
2018-05-21T05:09:03.767Z,1.90
2018-05-21T05:11:34.553Z,1.93
2018-05-21T05:14:05.181Z,2.93
2018-05-21T05:16:35.886Z,49.93
2018-05-21T05:19:08.297Z,133.43
2018-05-21T05:21:51.872Z,157.10
2018-05-21T05:24:21.995Z,258.30
2018-05-21T05:26:55.392Z,208.13
2018-05-21T05:29:25.154Z,188.93
2018-05-21T05:31:57.368Z,101.83
2018-05-21T05:34:25.647Z,71.47
2018-05-21T05:36:54.020Z,144.33
2018-05-21T05:39:32.037Z,134.63
2018-05-21T05:42:18.962Z,121.37
2018-05-21T05:44:52.963Z,120.47
2018-05-21T05:47:21.254Z,115.53
2018-05-21T05:49:49.732Z,116.87
2018-05-21T05:52:18.024Z,111.43
2018-05-21T05:54:46.490Z,106.93
2018-05-21T05:57:15.530Z,99.80
2018-05-21T05:59:57.558Z,98.40
2018-05-21T06:02:27.318Z,95.40
2018-05-21T06:04:55.655Z,94.37
2018-05-21T06:07:23.969Z,88.13
2018-05-21T06:09:52.411Z,88.13
2018-05-21T06:12:20.714Z,86.27
2018-05-21T06:14:49.184Z,80.73
2018-05-21T06:17:17.583Z,81.57
2018-05-21T06:19:45.864Z,76.53
2018-05-21T06:22:14.139Z,77.57
2018-05-21T06:24:42.420Z,74.10
2018-05-21T06:27:10.759Z,75.57
2018-05-21T06:29:39.034Z,73.47
2018-05-21T06:32:07.512Z,70.70
2018-05-21T06:34:35.803Z,72.30
2018-05-21T06:37:04.074Z,70.50
2018-05-21T06:39:32.363Z,68.37
2018-05-21T06:42:00.654Z,67.67
2018-05-21T06:44:29.104Z,66.70
2018-05-21T06:46:57.479Z,63.10
2018-05-21T06:49:25.783Z,64.90
2018-05-21T06:51:54.058Z,51.53
2018-05-21T06:54:22.327Z,42.90
2018-05-21T06:56:51.366Z,50.97
2018-05-21T06:59:19.642Z,49.10
2018-05-21T07:01:47.990Z,50.30
2018-05-21T07:04:16.440Z,41.70
2018-05-21T07:06:44.726Z,46.93
2018-05-21T07:09:13.282Z,43.47
2018-05-21T07:11:41.855Z,41.80
2018-05-21T07:14:10.901Z,44.13
2018-05-21T07:16:39.245Z,42.77
2018-05-21T07:19:07.562Z,35.60
2018-05-21T07:21:36.231Z,39.73
2018-05-21T07:24:04.505Z,42.13
2018-05-21T07:26:32.877Z,43.40
2018-05-21T07:29:01.389Z,39.87
2018-05-21T07:31:29.888Z,41.50
2018-05-21T07:33:58.145Z,36.13
2018-05-21T07:36:27.199Z,40.20
2018-05-21T07:38:55.503Z,40.23
2018-05-21T07:41:23.961Z,39.60
2018-05-21T07:43:53.862Z,39.90
2018-05-21T07:46:22.207Z,34.93
2018-05-21T07:48:50.567Z,37.73
2018-05-21T07:51:19.853Z,36.40
2018-05-21T07:53:49.005Z,37.13
2018-05-21T07:56:17.563Z,29.13
2018-05-21T07:58:45.877Z,37.80
2018-05-21T08:01:15.833Z,38.40
2018-05-21T08:03:45.326Z,35.47
2018-05-21T08:06:17.600Z,30.70
2018-05-21T08:08:45.856Z,35.10
2018-05-21T08:11:14.196Z,32.63
2018-05-21T08:13:42.474Z,34.67
2018-05-21T08:16:10.785Z,33.63
2018-05-21T08:18:39.082Z,33.97
2018-05-21T08:21:07.400Z,34.27
2018-05-21T08:23:35.654Z,34.63
2018-05-21T08:26:03.987Z,36.33
2018-05-21T08:28:32.391Z,31.67
2018-05-21T08:31:00.684Z,31.73
2018-05-21T08:33:29.150Z,28.63
2018-05-21T08:35:57.497Z,32.77
2018-05-21T08:38:25.767Z,32.33
2018-05-21T08:40:54.290Z,29.70
2018-05-21T08:43:22.570Z,30.80
2018-05-21T08:45:50.853Z,29.57
2018-05-21T08:48:19.128Z,29.50
2018-05-21T08:50:47.414Z,33.40
2018-05-21T08:53:16.463Z,31.50
2018-05-21T08:55:44.744Z,28.13
2018-05-21T08:58:13.256Z,25.97
2018-05-21T09:00:41.639Z,27.00
2018-05-21T09:03:09.923Z,27.60
2018-05-21T09:05:38.381Z,25.47
2018-05-21T09:08:06.659Z,26.13
2018-05-21T09:10:34.938Z,26.73
2018-05-21T09:13:03.219Z,25.90
2018-05-21T09:15:31.484Z,23.83
2018-05-21T09:17:59.905Z,24.83
2018-05-21T09:20:28.343Z,25.17
2018-05-21T09:22:56.628Z,24.67
2018-05-21T09:25:25.129Z,24.17
2018-05-21T09:27:53.418Z,25.27
2018-05-21T09:30:21.890Z,21.83
2018-05-21T09:32:50.179Z,25.93
2018-05-21T09:35:18.466Z,25.27
2018-05-21T09:37:46.747Z,27.60
2018-05-21T09:40:15.068Z,26.50
2018-05-21T09:42:43.483Z,25.17
2018-05-21T09:45:11.847Z,25.67
2018-05-21T09:47:40.122Z,24.17
2018-05-21T09:50:08.440Z,25.10
2018-05-21T09:52:36.725Z,23.73
2018-05-21T09:55:05.020Z,24.67
2018-05-21T09:57:33.489Z,23.90
2018-05-21T10:00:01.798Z,24.67
2018-05-21T10:02:30.075Z,23.70
2018-05-21T10:04:58.347Z,24.43
2018-05-21T10:07:26.629Z,24.07
2018-05-21T10:09:54.935Z,24.23
2018-05-21T10:12:23.392Z,24.20
2018-05-21T10:14:51.874Z,25.07
2018-05-21T10:17:20.131Z,25.37
2018-05-21T10:19:48.402Z,24.33
2018-05-21T10:22:16.851Z,23.17
2018-05-21T10:24:45.126Z,22.03
2018-05-21T10:27:13.406Z,23.70
2018-05-21T10:29:42.355Z,22.10
2018-05-21T10:32:10.662Z,22.23
2018-05-21T10:34:39.179Z,20.07
2018-05-21T10:37:07.576Z,18.23
2018-05-21T10:39:35.869Z,14.20
2018-05-21T10:42:04.163Z,12.23
2018-05-21T10:44:36.452Z,12.47
2018-05-21T10:47:07.296Z,11.03
2018-05-21T10:49:39.008Z,11.70
2018-05-21T10:52:08.592Z,10.93
2018-05-21T10:54:36.902Z,10.17
2018-05-21T10:57:05.182Z,8.50
2018-05-21T10:59:33.477Z,8.60
2018-05-21T11:02:01.763Z,9.10
2018-05-21T11:04:30.068Z,13.37
2018-05-21T11:06:58.356Z,19.13
2018-05-21T11:09:26.857Z,16.67
2018-05-21T11:11:55.150Z,14.60
2018-05-21T11:14:23.620Z,14.83
2018-05-21T11:16:51.974Z,16.30
2018-05-21T11:19:20.252Z,16.93
2018-05-21T11:21:48.541Z,24.80
2018-05-21T11:24:16.838Z,22.80
2018-05-21T11:26:45.143Z,26.13
2018-05-21T11:29:13.423Z,27.70
2018-05-21T11:31:41.730Z,21.93
2018-05-21T11:34:10.003Z,21.87
2018-05-21T11:36:38.274Z,21.20
2018-05-21T11:39:06.704Z,19.30
2018-05-21T11:41:35.007Z,18.07
2018-05-21T11:44:03.302Z,14.83
2018-05-21T11:46:31.615Z,13.17
2018-05-21T11:49:00.006Z,12.47
2018-05-21T11:51:28.298Z,13.23
2018-05-21T11:54:01.778Z,10.27
2018-05-21T11:56:31.400Z,11.57
2018-05-21T11:59:00.343Z,11.27
2018-05-21T12:01:28.671Z,9.07
2018-05-21T12:03:56.933Z,8.90
2018-05-21T12:06:25.420Z,8.97
2018-05-21T12:08:53.790Z,10.73
2018-05-21T12:11:22.177Z,12.53
2018-05-21T12:13:50.455Z,13.20
2018-05-21T12:16:18.751Z,13.37
2018-05-21T12:18:47.061Z,12.47
2018-05-21T12:21:16.185Z,13.60
2018-05-21T12:23:44.464Z,12.80
2018-05-21T12:26:12.751Z,12.60
2018-05-21T12:28:41.074Z,13.03
2018-05-21T12:31:09.322Z,12.30
2018-05-21T12:33:38.369Z,12.03
2018-05-21T12:36:06.666Z,11.70
2018-05-21T12:38:34.940Z,12.60
2018-05-21T12:41:03.218Z,11.57
2018-05-21T12:43:31.491Z,11.93
2018-05-21T12:45:59.786Z,12.07
2018-05-21T12:48:28.158Z,11.93
2018-05-21T12:50:56.498Z,11.87
2018-05-21T12:53:24.794Z,11.87
2018-05-21T12:55:53.289Z,11.07
2018-05-21T12:58:21.613Z,12.03
2018-05-21T13:00:50.074Z,10.97
2018-05-21T13:03:18.362Z,11.90
2018-05-21T13:05:46.822Z,11.00
2018-05-21T13:08:15.110Z,11.27
2018-05-21T13:10:43.578Z,10.30
2018-05-21T13:13:11.977Z,10.90
2018-05-21T13:15:40.335Z,9.00
2018-05-21T13:18:08.671Z,9.50
2018-05-21T13:20:36.975Z,10.17
2018-05-21T13:23:05.249Z,9.47
2018-05-21T13:25:33.529Z,8.37
2018-05-21T13:28:01.808Z,8.57
2018-05-21T13:30:30.910Z,8.37
2018-05-21T13:32:59.234Z,8.03
2018-05-21T13:35:27.699Z,7.67
2018-05-21T13:37:55.941Z,6.90
2018-05-21T13:40:24.446Z,4.43
2018-05-21T13:42:52.705Z,6.50
2018-05-21T13:45:21.000Z,4.97
2018-05-21T13:47:49.269Z,5.03
2018-05-21T13:50:17.531Z,4.60
2018-05-21T13:52:45.834Z,4.70
2018-05-21T13:55:14.090Z,5.00
2018-05-21T13:57:42.458Z,5.50
2018-05-21T14:00:10.734Z,4.73
2018-05-21T14:02:39.006Z,4.40
2018-05-21T14:05:07.295Z,5.37
2018-05-21T14:07:35.578Z,5.17
2018-05-21T14:10:03.857Z,3.93
2018-05-21T14:12:32.165Z,4.07
2018-05-21T14:15:00.410Z,4.57
2018-05-21T14:17:28.973Z,4.30
2018-05-21T14:19:57.261Z,4.03
2018-05-21T14:22:25.532Z,3.87
2018-05-21T14:24:53.811Z,4.00
2018-05-21T14:27:22.120Z,3.33
2018-05-21T14:29:50.544Z,4.03
2018-05-21T14:32:18.734Z,3.90
2018-05-21T14:34:47.273Z,3.63
2018-05-21T14:37:15.652Z,3.60
2018-05-21T14:39:43.920Z,3.57
2018-05-21T14:42:12.995Z,3.40
2018-05-21T14:44:41.262Z,3.10
2018-05-21T14:47:09.748Z,3.07
2018-05-21T14:49:38.015Z,3.33
2018-05-21T14:52:06.284Z,3.33
2018-05-21T14:54:34.584Z,3.53
2018-05-21T14:57:02.939Z,3.20
2018-05-21T14:59:31.202Z,2.80
2018-05-21T15:01:59.533Z,3.33
2018-05-21T15:04:27.753Z,3.37
2018-05-21T15:06:56.020Z,3.10
2018-05-21T15:09:24.319Z,3.20
2018-05-21T15:11:52.570Z,2.87
2018-05-21T15:14:20.838Z,2.50
2018-05-21T15:16:49.102Z,3.37
2018-05-21T15:19:17.442Z,3.53
2018-05-21T15:21:45.718Z,2.70
2018-05-21T15:24:13.995Z,2.83
2018-05-21T15:26:42.253Z,2.97
2018-05-21T15:29:10.526Z,2.77
2018-05-21T15:31:39.035Z,2.80
2018-05-21T15:34:07.297Z,2.70
2018-05-21T15:36:35.570Z,2.70
2018-05-21T15:39:03.886Z,2.50
2018-05-21T15:41:32.151Z,2.93
2018-05-21T15:44:00.636Z,2.80
2018-05-21T15:46:28.903Z,2.80
2018-05-21T15:48:57.369Z,2.50
2018-05-21T15:51:25.633Z,2.70
2018-05-21T15:53:54.140Z,2.70
2018-05-21T15:56:22.404Z,2.30
2018-05-21T15:58:50.664Z,2.50
2018-05-21T16:01:18.933Z,2.50
2018-05-21T16:03:47.215Z,2.60
2018-05-21T16:06:16.310Z,3.00
2018-05-21T16:08:44.602Z,2.67
2018-05-21T16:11:13.674Z,2.20
2018-05-21T16:13:41.946Z,2.47
2018-05-21T16:16:10.239Z,2.03
2018-05-21T16:18:38.515Z,2.30
2018-05-21T16:21:06.917Z,2.30
2018-05-21T16:23:35.290Z,2.37
2018-05-21T16:26:03.670Z,2.20
2018-05-21T16:28:31.964Z,2.40
2018-05-21T16:31:01.328Z,2.30
2018-05-21T16:33:29.652Z,2.53
2018-05-21T16:35:57.965Z,2.17
2018-05-21T16:38:26.259Z,2.20
2018-05-21T16:40:54.523Z,2.30
2018-05-21T16:43:22.930Z,2.27
2018-05-21T16:45:51.390Z,2.00
2018-05-21T16:48:19.639Z,2.17
2018-05-21T16:50:48.696Z,2.30
2018-05-21T16:53:16.964Z,2.50
2018-05-21T16:55:45.456Z,2.30
2018-05-21T16:58:13.736Z,2.30
2018-05-21T17:00:42.208Z,2.23
2018-05-21T17:03:10.500Z,2.50
2018-05-21T17:05:38.811Z,2.00
2018-05-21T17:08:08.310Z,1.93
2018-05-21T17:10:36.663Z,2.20
2018-05-21T17:13:04.933Z,2.10
2018-05-21T17:15:33.425Z,2.53
2018-05-21T17:18:08.591Z,2.30
2018-05-21T17:20:40.420Z,2.20
2018-05-21T17:23:11.553Z,2.40
2018-05-21T17:25:41.646Z,2.30
2018-05-21T17:28:25.017Z,2.47
2018-05-21T17:30:56.617Z,2.33
2018-05-21T17:33:28.121Z,2.20
2018-05-21T17:35:59.232Z,2.43
2018-05-21T17:38:27.505Z,2.37
2018-05-21T17:40:58.901Z,2.40
2018-05-21T17:46:06.913Z,2.70
2018-05-21T17:48:37.997Z,2.70
2018-05-21T17:51:06.253Z,2.50
2018-05-21T17:53:35.302Z,2.30
2018-05-21T17:56:03.576Z,2.50
2018-05-21T17:58:31.855Z,2.43
2018-05-21T18:01:00.124Z,2.70
2018-05-21T18:03:28.385Z,2.40
2018-05-21T18:05:56.681Z,3.00
2018-05-21T18:08:24.927Z,2.30
2018-05-21T18:10:53.350Z,2.37
2018-05-21T18:13:21.613Z,2.50
2018-05-21T18:15:49.906Z,2.67
2018-05-21T18:18:18.176Z,2.30
2018-05-21T18:20:46.562Z,2.60
2018-05-21T18:23:15.219Z,2.30
2018-05-21T18:25:43.743Z,2.37
2018-05-21T18:28:11.993Z,2.50
2018-05-21T18:30:40.266Z,2.30
2018-05-21T18:33:08.678Z,1.97
2018-05-21T18:35:36.944Z,2.43
2018-05-21T18:38:05.213Z,2.43
2018-05-21T18:40:33.478Z,2.70
2018-05-21T18:43:01.771Z,2.60
2018-05-21T18:45:30.039Z,2.20
2018-05-21T18:47:58.542Z,2.70
2018-05-21T18:50:26.827Z,2.53
2018-05-21T18:52:55.186Z,2.20
2018-05-21T18:55:23.477Z,2.67
2018-05-21T18:57:51.758Z,2.30
2018-05-21T19:00:20.129Z,2.53
2018-05-21T19:02:49.418Z,2.37
2018-05-21T19:05:19.184Z,2.37
2018-05-21T19:07:48.182Z,2.73
2018-05-21T19:10:18.104Z,2.27
2018-05-21T19:12:47.942Z,2.63
2018-05-21T19:15:16.308Z,2.70
2018-05-21T19:17:44.530Z,2.63
2018-05-21T19:20:12.811Z,2.30
2018-05-21T19:22:41.091Z,2.60
2018-05-21T19:25:09.354Z,2.40
2018-05-21T19:27:37.644Z,2.03
2018-05-21T19:30:06.693Z,2.30
2018-05-21T19:32:35.201Z,2.57
2018-05-21T19:35:03.547Z,2.00
2018-05-21T19:37:31.806Z,2.10
2018-05-21T19:40:00.066Z,2.30
2018-05-21T19:42:28.349Z,2.30
2018-05-21T19:44:56.621Z,2.00
2018-05-21T19:47:25.651Z,2.33
2018-05-21T19:49:53.943Z,2.27
2018-05-21T19:52:22.214Z,2.20
2018-05-21T19:54:50.520Z,2.20
2018-05-21T19:57:18.945Z,2.30
2018-05-21T19:59:47.612Z,2.40
2018-05-21T20:02:15.967Z,2.23
2018-05-21T20:04:44.231Z,2.20
2018-05-21T20:07:12.691Z,2.50
2018-05-21T20:09:40.976Z,3.03
2018-05-21T20:12:09.228Z,2.63
2018-05-21T20:14:37.525Z,2.30
2018-05-21T20:17:05.792Z,2.57
2018-05-21T20:19:34.061Z,2.57
2018-05-21T20:22:02.352Z,2.40
2018-05-21T20:24:30.725Z,2.30
2018-05-21T20:26:59.119Z,2.37
2018-05-21T20:29:27.483Z,2.10
2018-05-21T20:31:55.760Z,2.13
2018-05-21T20:34:24.030Z,2.30
2018-05-21T20:36:52.362Z,2.47
2018-05-21T20:39:25.755Z,2.00
2018-05-21T20:41:58.918Z,2.20
2018-05-21T20:44:28.332Z,2.03
2018-05-21T20:46:57.842Z,2.30
2018-05-21T20:49:27.198Z,2.10
2018-05-21T20:51:57.948Z,2.03
2018-05-21T20:54:26.987Z,1.77
2018-05-21T20:56:56.285Z,1.93
2018-05-21T20:59:24.570Z,1.60
2018-05-21T21:01:53.620Z,2.53
2018-05-21T21:04:21.878Z,2.00
2018-05-21T21:06:50.147Z,2.37
2018-05-21T21:09:18.419Z,2.47
2018-05-21T21:11:46.682Z,2.30
2018-05-21T21:14:14.964Z,1.97
2018-05-21T21:16:43.304Z,1.93
2018-05-21T21:19:11.590Z,1.90
2018-05-21T21:21:39.882Z,2.13
2018-05-21T21:24:08.135Z,1.93
2018-05-21T21:26:36.495Z,2.00
2018-05-21T21:29:04.770Z,1.70
2018-05-21T21:31:33.278Z,2.00
2018-05-21T21:34:01.559Z,1.90
2018-05-21T21:36:29.832Z,1.63
2018-05-21T21:38:58.114Z,1.73
2018-05-21T21:41:26.378Z,2.10
2018-05-21T21:43:54.669Z,1.33
2018-05-21T21:46:22.963Z,1.53
2018-05-21T21:48:51.291Z,1.67
2018-05-21T21:51:19.557Z,1.97
2018-05-21T21:53:47.854Z,1.80
2018-05-21T21:56:16.935Z,1.50
2018-05-21T21:58:45.380Z,1.30
2018-05-21T22:01:13.794Z,1.30
2018-05-21T22:03:42.089Z,1.50
2018-05-21T22:06:10.360Z,1.60
2018-05-21T22:08:38.650Z,1.80
2018-05-21T22:11:06.918Z,1.70
2018-05-21T22:13:35.190Z,2.00
2018-05-21T22:16:03.486Z,1.73
2018-05-21T22:18:31.757Z,1.60
2018-05-21T22:21:00.063Z,1.83
2018-05-21T22:23:28.354Z,1.90
2018-05-21T22:25:56.642Z,1.80
2018-05-21T22:28:24.909Z,1.90
2018-05-21T22:30:53.199Z,1.90
2018-05-21T22:33:21.461Z,1.87
2018-05-21T22:35:49.761Z,1.83
2018-05-21T22:38:18.039Z,2.00
2018-05-21T22:40:46.326Z,1.80
2018-05-21T22:43:14.606Z,1.70
2018-05-21T22:45:42.866Z,1.90
2018-05-21T22:48:11.141Z,1.70
2018-05-21T22:50:39.542Z,1.50
2018-05-21T22:53:07.831Z,2.07
2018-05-21T22:55:36.303Z,2.30
2018-05-21T22:58:04.669Z,1.50
2018-05-21T23:00:32.951Z,1.57
2018-05-21T23:03:01.253Z,1.83
2018-05-21T23:05:29.536Z,1.73
2018-05-21T23:07:57.801Z,1.80
2018-05-21T23:10:26.078Z,1.80
2018-05-21T23:12:54.348Z,1.80
2018-05-21T23:15:22.615Z,1.60
2018-05-21T23:17:50.969Z,1.87
2018-05-21T23:20:19.278Z,2.10
2018-05-21T23:22:47.556Z,1.60
2018-05-21T23:25:15.818Z,1.90
2018-05-21T23:27:44.088Z,1.93
2018-05-21T23:30:13.829Z,1.83
2018-05-21T23:32:42.898Z,2.00
2018-05-21T23:35:11.160Z,2.10
2018-05-21T23:37:39.434Z,2.07
2018-05-21T23:40:07.765Z,2.10
2018-05-21T23:42:36.028Z,1.93
2018-05-21T23:45:04.498Z,2.07
2018-05-21T23:47:32.891Z,1.60
2018-05-21T23:50:01.176Z,1.70
2018-05-21T23:52:29.633Z,1.60
2018-05-21T23:54:58.033Z,1.60
2018-05-21T23:57:26.308Z,1.63
2018-05-21T23:59:54.582Z,1.60
